Terminal Aerodrome Forecast
Issued by NWS

Current Version | Previous Version | Text Only | Print | Product List | Glossary On
Versions: 1 2 3 4 5 6 7 8 9 10 11 12 13 14 15 16 17 18 19 20 21 22 23 24 25 26 27 28 29 30 31 32 33 34 35 36 37 38 39 40 41 42 43 44 45 46 47 48 49 50
000
FTUS45 KGJT 230529
TAFTEX
TAFTEX
TAF
KTEX 230529Z 2306/2406 10008G15KT P6SM -TSRA SCT015 BKN025 OVC040CB
      TEMPO 2306/2308 VRB10G20KT
     FM230800 16005KT P6SM VCSH SCT060 BKN100
     FM231500 15005KT P6SM BKN120
     FM231900 24010KT P6SM VCSH SCT060 BKN100
     FM232100 20009KT P6SM VCTS BKN060CB BKN100
     FM240300 13004KT P6SM VCSH BKN060=

USA.gov is the U.S. government's official web portal to all federal, state and local government web resources and services.